createdAt,value
2018-08-31T00:00:06.293Z,0
2018-08-31T00:00:46.850Z,0
2018-08-31T00:01:27.420Z,0
2018-08-31T00:02:08.004Z,0
2018-08-31T00:02:48.567Z,0
2018-08-31T00:03:29.135Z,0
2018-08-31T00:04:09.700Z,0
2018-08-31T00:04:50.260Z,0
2018-08-31T00:05:30.831Z,0
2018-08-31T00:06:11.381Z,0
2018-08-31T00:06:51.950Z,0
2018-08-31T00:07:32.504Z,0
2018-08-31T00:08:13.065Z,0
2018-08-31T00:08:53.653Z,0
2018-08-31T00:09:34.203Z,0
2018-08-31T00:10:14.775Z,0
2018-08-31T00:10:55.334Z,0
2018-08-31T00:11:35.891Z,0
2018-08-31T00:12:16.460Z,0
2018-08-31T00:12:57.058Z,0
2018-08-31T00:13:37.587Z,0
2018-08-31T00:14:18.149Z,0
2018-08-31T00:14:58.715Z,0
2018-08-31T00:15:39.278Z,0
2018-08-31T00:16:19.830Z,0
2018-08-31T00:17:00.390Z,0
2018-08-31T00:17:41.002Z,0
2018-08-31T00:18:21.660Z,0
2018-08-31T00:19:02.232Z,0
2018-08-31T00:19:42.831Z,0
2018-08-31T00:20:23.401Z,0
2018-08-31T00:21:03.970Z,0
2018-08-31T00:21:44.584Z,0
2018-08-31T00:22:25.144Z,0
2018-08-31T00:23:05.702Z,0
2018-08-31T00:23:46.272Z,0
2018-08-31T00:24:26.840Z,0
2018-08-31T00:25:07.394Z,0
2018-08-31T00:25:47.956Z,0
2018-08-31T00:26:28.551Z,0
2018-08-31T00:27:09.131Z,0
2018-08-31T00:27:49.700Z,0
2018-08-31T00:28:30.273Z,0
2018-08-31T00:29:10.931Z,0
2018-08-31T00:29:51.501Z,0
2018-08-31T00:30:32.072Z,0
2018-08-31T00:31:12.636Z,0
2018-08-31T00:31:53.199Z,0
2018-08-31T00:32:33.907Z,0
2018-08-31T00:33:14.493Z,0
2018-08-31T00:33:55.096Z,0
2018-08-31T00:34:35.665Z,0
2018-08-31T00:35:16.261Z,0
2018-08-31T00:35:56.819Z,0
2018-08-31T00:36:37.370Z,0
2018-08-31T00:37:17.930Z,0
2018-08-31T00:37:58.497Z,0
2018-08-31T00:38:39.053Z,0
2018-08-31T00:39:19.633Z,0
2018-08-31T00:40:00.201Z,0
2018-08-31T00:40:40.776Z,0
2018-08-31T00:41:21.347Z,0
2018-08-31T00:42:01.906Z,0
2018-08-31T00:42:42.472Z,0
2018-08-31T00:43:23.038Z,0
2018-08-31T00:44:03.619Z,0
2018-08-31T00:44:44.151Z,0
2018-08-31T00:45:24.700Z,0
2018-08-31T00:46:05.269Z,0
2018-08-31T00:46:45.856Z,0
2018-08-31T00:47:26.418Z,0
2018-08-31T00:48:06.990Z,0
2018-08-31T00:48:47.603Z,0
2018-08-31T00:49:28.149Z,0
2018-08-31T00:50:08.715Z,0
2018-08-31T00:50:49.262Z,0
2018-08-31T00:51:29.827Z,0
2018-08-31T00:52:10.382Z,0
2018-08-31T00:52:50.954Z,0
2018-08-31T00:53:31.512Z,0
2018-08-31T00:54:12.067Z,0
2018-08-31T00:54:52.620Z,0
2018-08-31T00:55:33.182Z,0
2018-08-31T00:56:13.744Z,0
2018-08-31T00:56:54.317Z,0
2018-08-31T00:57:34.894Z,0
2018-08-31T00:58:15.445Z,0
2018-08-31T00:58:56.002Z,0
2018-08-31T00:59:36.559Z,0
2018-08-31T01:00:17.160Z,0
2018-08-31T01:00:57.724Z,0
2018-08-31T01:01:38.286Z,0
2018-08-31T01:02:18.853Z,0
2018-08-31T01:02:59.410Z,0
2018-08-31T01:03:39.955Z,0
2018-08-31T01:04:20.525Z,0
2018-08-31T01:05:01.104Z,0
2018-08-31T01:05:41.726Z,0
2018-08-31T01:06:22.300Z,0
2018-08-31T01:07:02.863Z,0
2018-08-31T01:07:43.429Z,0
2018-08-31T01:08:24.005Z,0
2018-08-31T01:09:04.550Z,0
2018-08-31T01:09:45.124Z,0
2018-08-31T01:10:25.680Z,0
2018-08-31T01:11:06.241Z,0
2018-08-31T01:11:46.814Z,0
2018-08-31T01:12:27.377Z,0
2018-08-31T01:13:07.954Z,0
2018-08-31T01:13:48.517Z,0
2018-08-31T01:14:29.092Z,0
2018-08-31T01:15:09.648Z,0
2018-08-31T01:15:50.211Z,0
2018-08-31T01:16:30.774Z,0
2018-08-31T01:17:11.367Z,0
2018-08-31T01:17:51.930Z,0
2018-08-31T01:18:32.557Z,0
2018-08-31T01:19:13.070Z,0
2018-08-31T01:19:53.635Z,0
2018-08-31T01:20:34.192Z,0
2018-08-31T01:21:14.799Z,0
2018-08-31T01:21:55.354Z,0
2018-08-31T01:22:35.912Z,0
2018-08-31T01:23:16.473Z,0
2018-08-31T01:23:57.041Z,0
2018-08-31T01:24:37.612Z,0
2018-08-31T01:25:18.174Z,0
2018-08-31T01:25:58.737Z,0
2018-08-31T01:26:39.288Z,0
2018-08-31T01:27:19.869Z,0
2018-08-31T01:28:00.431Z,0
2018-08-31T01:28:40.994Z,0
2018-08-31T01:29:21.546Z,0
2018-08-31T01:30:02.100Z,0
2018-08-31T01:30:42.686Z,0
2018-08-31T01:31:23.254Z,0
2018-08-31T01:32:03.822Z,0
2018-08-31T01:32:44.402Z,0
2018-08-31T01:33:24.979Z,0
2018-08-31T01:34:05.545Z,0
2018-08-31T01:34:46.175Z,0
2018-08-31T01:35:27.138Z,0
2018-08-31T01:36:07.690Z,0
2018-08-31T01:36:48.269Z,0
2018-08-31T01:37:28.819Z,0
2018-08-31T01:38:09.384Z,0
2018-08-31T01:38:49.945Z,0
2018-08-31T01:39:30.513Z,0
2018-08-31T01:40:11.081Z,0
2018-08-31T01:40:51.635Z,0
2018-08-31T01:41:32.203Z,0
2018-08-31T01:42:12.766Z,0
2018-08-31T01:42:53.345Z,0
2018-08-31T01:43:33.892Z,0
2018-08-31T01:44:14.468Z,0
2018-08-31T01:44:55.024Z,0
2018-08-31T01:45:35.595Z,0
2018-08-31T01:46:16.155Z,0
2018-08-31T01:46:56.724Z,0
2018-08-31T01:47:37.284Z,0
2018-08-31T01:48:17.871Z,0
2018-08-31T01:48:58.438Z,0
2018-08-31T01:49:38.998Z,0
2018-08-31T01:50:19.569Z,0
2018-08-31T01:51:00.125Z,0
2018-08-31T01:51:40.765Z,0
2018-08-31T01:52:21.284Z,0
2018-08-31T01:53:01.863Z,0
2018-08-31T01:53:42.434Z,0
2018-08-31T01:54:23.007Z,0
2018-08-31T01:55:03.598Z,0
2018-08-31T01:55:44.167Z,0
2018-08-31T01:56:24.745Z,0
2018-08-31T01:57:05.334Z,0
2018-08-31T01:57:45.897Z,0
2018-08-31T01:58:26.469Z,0
2018-08-31T01:59:07.051Z,0
2018-08-31T01:59:47.616Z,0
2018-08-31T02:00:28.180Z,0
2018-08-31T02:01:08.736Z,0
2018-08-31T02:01:49.300Z,0
2018-08-31T02:02:29.857Z,0
2018-08-31T02:03:10.415Z,0
2018-08-31T02:03:51.000Z,0
2018-08-31T02:04:31.569Z,0
2018-08-31T02:05:12.135Z,0
2018-08-31T02:05:52.697Z,0
2018-08-31T02:06:33.246Z,0
2018-08-31T02:07:13.852Z,0
2018-08-31T02:07:54.467Z,0
2018-08-31T02:08:34.991Z,0
2018-08-31T02:09:15.545Z,0
2018-08-31T02:09:56.109Z,0
2018-08-31T02:10:36.668Z,0
2018-08-31T02:11:17.231Z,0
2018-08-31T02:11:57.796Z,0
2018-08-31T02:12:38.353Z,0
2018-08-31T02:13:18.920Z,0
2018-08-31T02:13:59.506Z,0
2018-08-31T02:14:40.069Z,0
2018-08-31T02:15:20.633Z,0
2018-08-31T02:16:01.185Z,0
2018-08-31T02:16:41.754Z,0
2018-08-31T02:17:22.312Z,0
2018-08-31T02:18:02.893Z,0
2018-08-31T02:18:43.447Z,0
2018-08-31T02:19:24.033Z,0
2018-08-31T02:20:04.592Z,0
2018-08-31T02:20:45.187Z,0
2018-08-31T02:21:25.745Z,0
2018-08-31T02:22:06.341Z,0
2018-08-31T02:22:46.901Z,0
2018-08-31T02:23:27.458Z,0
2018-08-31T02:24:08.025Z,0
2018-08-31T02:24:48.593Z,0
2018-08-31T02:25:29.300Z,0
2018-08-31T02:26:09.903Z,0
2018-08-31T02:26:50.460Z,0
2018-08-31T02:27:31.015Z,0
2018-08-31T02:28:11.573Z,0
2018-08-31T02:28:52.133Z,0
2018-08-31T02:29:32.695Z,0
2018-08-31T02:30:13.273Z,0
2018-08-31T02:30:53.858Z,0
2018-08-31T02:31:34.438Z,0
2018-08-31T02:32:15.023Z,0
2018-08-31T02:32:55.584Z,0
2018-08-31T02:33:36.148Z,0
2018-08-31T02:34:16.709Z,0
2018-08-31T02:34:57.288Z,0
2018-08-31T02:35:37.845Z,0
2018-08-31T02:36:18.433Z,0
2018-08-31T02:36:59.079Z,0
2018-08-31T02:37:39.688Z,0
2018-08-31T02:38:20.257Z,0
2018-08-31T02:39:00.816Z,0
2018-08-31T02:39:41.391Z,0
2018-08-31T02:40:21.974Z,0
2018-08-31T02:41:02.558Z,0
2018-08-31T02:41:43.134Z,0
2018-08-31T02:42:23.698Z,0
2018-08-31T02:43:04.260Z,0
2018-08-31T02:43:44.821Z,0
2018-08-31T02:44:25.376Z,0
2018-08-31T02:45:05.948Z,0
2018-08-31T02:45:46.499Z,0
2018-08-31T02:46:27.107Z,0
2018-08-31T02:47:07.652Z,0
2018-08-31T02:47:48.227Z,0
2018-08-31T02:48:28.810Z,0
2018-08-31T02:49:09.407Z,0
2018-08-31T02:49:49.962Z,0
2018-08-31T02:50:30.530Z,0
2018-08-31T02:51:11.092Z,0
2018-08-31T02:51:51.676Z,0
2018-08-31T02:52:32.218Z,0
2018-08-31T02:53:12.795Z,0
2018-08-31T02:53:53.357Z,0
2018-08-31T02:54:33.932Z,0
2018-08-31T02:55:14.515Z,0
2018-08-31T02:55:55.091Z,0
2018-08-31T02:56:35.697Z,0
2018-08-31T02:57:16.237Z,0
2018-08-31T02:57:56.794Z,0
2018-08-31T02:58:37.366Z,0
2018-08-31T02:59:17.931Z,0
2018-08-31T02:59:58.510Z,0
2018-08-31T03:00:39.071Z,0
2018-08-31T03:01:19.678Z,0
2018-08-31T03:02:00.245Z,0
2018-08-31T03:02:40.868Z,0
2018-08-31T03:03:21.455Z,0
2018-08-31T03:04:02.011Z,0
2018-08-31T03:04:42.598Z,0
2018-08-31T03:05:23.210Z,0
2018-08-31T03:06:03.764Z,0
2018-08-31T03:06:44.332Z,0
2018-08-31T03:07:24.888Z,0
2018-08-31T03:08:05.446Z,0
2018-08-31T03:08:46.012Z,0
2018-08-31T03:09:26.575Z,0
2018-08-31T03:10:07.155Z,0
2018-08-31T03:10:47.693Z,0
2018-08-31T03:11:28.298Z,0
2018-08-31T03:12:08.833Z,0
2018-08-31T03:12:49.386Z,0
2018-08-31T03:13:29.942Z,0
2018-08-31T03:14:10.518Z,0
2018-08-31T03:14:51.140Z,0
2018-08-31T03:15:31.704Z,0
2018-08-31T03:16:12.252Z,0
2018-08-31T03:16:52.819Z,0
2018-08-31T03:17:33.379Z,0
2018-08-31T03:18:13.992Z,0
2018-08-31T03:18:54.567Z,0
2018-08-31T03:19:35.129Z,0
2018-08-31T03:20:15.690Z,0
2018-08-31T03:20:56.251Z,0
2018-08-31T03:21:36.859Z,0
2018-08-31T03:22:17.451Z,0
2018-08-31T03:22:58.009Z,0
2018-08-31T03:23:38.575Z,0
2018-08-31T03:24:19.135Z,0
2018-08-31T03:24:59.707Z,0
2018-08-31T03:25:40.286Z,0
2018-08-31T03:26:20.847Z,0
2018-08-31T03:27:01.418Z,0
2018-08-31T03:27:41.978Z,0
2018-08-31T03:28:22.550Z,0
2018-08-31T03:29:03.116Z,0
2018-08-31T03:29:43.673Z,0
2018-08-31T03:30:24.259Z,0
2018-08-31T03:31:04.818Z,0
2018-08-31T03:31:45.432Z,0
2018-08-31T03:32:26.076Z,0
2018-08-31T03:33:06.567Z,0
2018-08-31T03:33:47.126Z,0
2018-08-31T03:34:27.681Z,0
2018-08-31T03:35:08.251Z,0
2018-08-31T03:35:48.823Z,0
2018-08-31T03:36:29.385Z,0
2018-08-31T03:37:09.948Z,0
2018-08-31T03:37:50.508Z,0
2018-08-31T03:38:31.070Z,0
2018-08-31T03:39:11.634Z,0
2018-08-31T03:39:52.180Z,0
2018-08-31T03:40:32.766Z,0
2018-08-31T03:41:13.333Z,0
2018-08-31T03:41:53.885Z,0
2018-08-31T03:42:34.453Z,0
2018-08-31T03:43:15.007Z,0
2018-08-31T03:43:55.653Z,0
2018-08-31T03:44:36.204Z,0
2018-08-31T03:45:16.762Z,0
2018-08-31T03:45:57.313Z,0
2018-08-31T03:46:37.888Z,0
2018-08-31T03:47:18.457Z,0
2018-08-31T03:47:59.061Z,0
2018-08-31T03:48:39.680Z,0
2018-08-31T03:49:20.246Z,0
2018-08-31T03:50:00.811Z,0
2018-08-31T03:50:41.367Z,0
2018-08-31T03:51:21.954Z,0
2018-08-31T03:52:02.534Z,0
2018-08-31T03:52:43.098Z,0
2018-08-31T03:53:23.670Z,0
2018-08-31T03:54:04.281Z,0
2018-08-31T03:54:44.925Z,0
2018-08-31T03:55:25.481Z,0
2018-08-31T03:56:06.060Z,0
2018-08-31T03:56:46.619Z,0
2018-08-31T03:57:27.184Z,0
2018-08-31T03:58:07.732Z,0
2018-08-31T03:58:48.293Z,0
2018-08-31T03:59:28.920Z,0
2018-08-31T04:00:09.483Z,0
2018-08-31T04:00:50.045Z,0
2018-08-31T04:01:30.620Z,0
2018-08-31T04:02:11.215Z,0
2018-08-31T04:02:51.973Z,0
2018-08-31T04:03:32.527Z,0
2018-08-31T04:04:13.095Z,0
2018-08-31T04:04:53.652Z,0
2018-08-31T04:05:34.253Z,0
2018-08-31T04:06:14.785Z,0
2018-08-31T04:06:55.376Z,0
2018-08-31T04:07:36.032Z,0
2018-08-31T04:08:16.583Z,0
2018-08-31T04:08:57.149Z,0
2018-08-31T04:09:37.759Z,0
2018-08-31T04:10:18.336Z,0
2018-08-31T04:10:58.949Z,0
2018-08-31T04:11:39.537Z,0
2018-08-31T04:12:20.098Z,0
2018-08-31T04:13:00.650Z,0
2018-08-31T04:13:41.220Z,0
2018-08-31T04:14:21.783Z,0
2018-08-31T04:15:02.429Z,0
2018-08-31T04:15:42.968Z,0
2018-08-31T04:16:23.517Z,0
2018-08-31T04:17:04.097Z,0
2018-08-31T04:17:44.717Z,0
2018-08-31T04:18:25.276Z,0
2018-08-31T04:19:05.838Z,0
2018-08-31T04:19:46.399Z,0
2018-08-31T04:20:26.990Z,0
2018-08-31T04:21:07.571Z,5
2018-08-31T04:21:48.136Z,5
2018-08-31T04:22:28.732Z,5
2018-08-31T04:23:09.299Z,5
2018-08-31T04:23:49.857Z,5
2018-08-31T04:24:30.472Z,5
2018-08-31T04:25:11.038Z,5
2018-08-31T04:25:51.609Z,5
2018-08-31T04:26:32.180Z,5
2018-08-31T04:27:12.755Z,5
2018-08-31T04:27:53.381Z,5
2018-08-31T04:28:33.944Z,5
2018-08-31T04:29:14.501Z,5
2018-08-31T04:29:55.085Z,5
2018-08-31T04:30:35.675Z,10
2018-08-31T04:31:16.233Z,10
2018-08-31T04:31:56.794Z,10
2018-08-31T04:32:37.368Z,10
2018-08-31T04:33:17.940Z,10
2018-08-31T04:34:00.322Z,10
2018-08-31T04:34:40.865Z,10
2018-08-31T04:35:21.440Z,10
2018-08-31T04:36:02.066Z,10
2018-08-31T04:36:42.625Z,10
2018-08-31T04:37:23.223Z,10
2018-08-31T04:38:03.777Z,15
2018-08-31T04:38:44.417Z,15
2018-08-31T04:39:25.032Z,15
2018-08-31T04:40:05.594Z,15
2018-08-31T04:40:46.174Z,15
2018-08-31T04:41:26.719Z,15
2018-08-31T04:42:07.297Z,15
2018-08-31T04:42:47.929Z,15
2018-08-31T04:43:28.452Z,20
2018-08-31T04:44:09.023Z,20
2018-08-31T04:44:49.609Z,20
2018-08-31T04:45:30.170Z,20
2018-08-31T04:46:10.740Z,20
2018-08-31T04:46:51.304Z,20
2018-08-31T04:47:31.903Z,20
2018-08-31T04:48:12.482Z,20
2018-08-31T04:48:53.033Z,20
2018-08-31T04:49:33.649Z,25
2018-08-31T04:50:14.225Z,25
2018-08-31T04:50:54.770Z,20
2018-08-31T04:51:35.359Z,25
2018-08-31T04:52:15.931Z,25
2018-08-31T04:52:56.486Z,30
2018-08-31T04:53:37.042Z,30
2018-08-31T04:54:17.598Z,30
2018-08-31T04:54:58.173Z,30
2018-08-31T04:55:38.733Z,30
2018-08-31T04:56:19.322Z,35
2018-08-31T04:56:59.874Z,35
2018-08-31T04:57:40.478Z,35
2018-08-31T04:58:21.060Z,35
2018-08-31T04:59:01.744Z,40
2018-08-31T04:59:42.159Z,40
2018-08-31T05:00:22.777Z,40
2018-08-31T05:01:03.342Z,40
2018-08-31T05:01:43.928Z,40
2018-08-31T05:02:24.465Z,45
2018-08-31T05:03:05.012Z,45
2018-08-31T05:03:45.667Z,45
2018-08-31T05:04:26.260Z,45
2018-08-31T05:05:06.820Z,45
2018-08-31T05:05:47.368Z,50
2018-08-31T05:06:27.947Z,50
2018-08-31T05:07:08.496Z,50
2018-08-31T05:07:49.054Z,50
2018-08-31T05:08:29.669Z,55
2018-08-31T05:09:10.219Z,55
2018-08-31T05:09:50.807Z,55
2018-08-31T05:10:31.368Z,55
2018-08-31T05:11:11.948Z,60
2018-08-31T05:11:52.516Z,60
2018-08-31T05:12:33.072Z,60
2018-08-31T05:13:13.630Z,60
2018-08-31T05:13:54.181Z,60
2018-08-31T05:14:34.745Z,65
2018-08-31T05:15:15.300Z,65
2018-08-31T05:15:55.978Z,65
2018-08-31T05:16:36.506Z,65
2018-08-31T05:17:17.072Z,70
2018-08-31T05:17:57.679Z,70
2018-08-31T05:18:38.235Z,70
2018-08-31T05:19:18.796Z,70
2018-08-31T05:19:59.354Z,75
2018-08-31T05:20:39.914Z,75
2018-08-31T05:21:20.469Z,75
2018-08-31T05:22:01.040Z,75
2018-08-31T05:22:41.656Z,80
2018-08-31T05:23:22.165Z,80
2018-08-31T05:24:02.735Z,80
2018-08-31T05:24:43.302Z,80
2018-08-31T05:25:23.864Z,80
2018-08-31T05:26:04.471Z,85
2018-08-31T05:26:45.060Z,85
2018-08-31T05:27:25.679Z,85
2018-08-31T05:28:06.233Z,90
2018-08-31T05:28:46.865Z,90
2018-08-31T05:29:27.433Z,90
2018-08-31T05:30:07.983Z,90
2018-08-31T05:30:48.625Z,90
2018-08-31T05:31:29.188Z,90
2018-08-31T05:32:09.763Z,90
2018-08-31T05:32:50.339Z,95
2018-08-31T05:33:30.884Z,95
2018-08-31T05:34:11.461Z,100
2018-08-31T05:34:52.056Z,105
2018-08-31T05:35:32.571Z,100
2018-08-31T05:36:13.170Z,105
2018-08-31T05:36:53.729Z,105
2018-08-31T05:37:34.442Z,110
2018-08-31T05:38:15.046Z,110
2018-08-31T05:38:55.604Z,110
2018-08-31T05:39:36.154Z,110
2018-08-31T05:40:16.721Z,110
2018-08-31T05:40:57.295Z,110
2018-08-31T05:41:37.846Z,110
2018-08-31T05:42:18.419Z,110
2018-08-31T05:42:58.979Z,110
2018-08-31T05:43:39.534Z,110
2018-08-31T05:44:20.099Z,110
2018-08-31T05:45:00.668Z,110
2018-08-31T05:45:41.225Z,110
2018-08-31T05:46:21.778Z,115
2018-08-31T05:47:02.331Z,115
2018-08-31T05:47:42.935Z,120
2018-08-31T05:48:23.472Z,120
2018-08-31T05:49:04.470Z,125
2018-08-31T05:49:45.028Z,125
2018-08-31T05:50:25.583Z,125
2018-08-31T05:51:06.136Z,130
2018-08-31T05:51:46.698Z,125
2018-08-31T05:52:27.268Z,130
2018-08-31T05:53:07.801Z,130
2018-08-31T05:53:48.404Z,130
2018-08-31T05:54:28.975Z,130
2018-08-31T05:55:09.539Z,130
2018-08-31T05:55:50.099Z,130
2018-08-31T05:56:30.726Z,130
2018-08-31T05:57:11.277Z,135
2018-08-31T05:57:51.849Z,135
2018-08-31T05:58:32.438Z,135
2018-08-31T05:59:13.004Z,135
2018-08-31T05:59:53.669Z,135
2018-08-31T06:00:34.276Z,130
2018-08-31T06:01:14.925Z,120
2018-08-31T06:01:55.476Z,110
2018-08-31T06:02:36.050Z,100
2018-08-31T06:03:16.618Z,95
2018-08-31T06:03:57.178Z,90
2018-08-31T06:04:37.754Z,85
2018-08-31T06:05:18.312Z,80
2018-08-31T06:05:58.868Z,75
2018-08-31T06:06:39.426Z,70
2018-08-31T06:07:20.002Z,70
2018-08-31T06:08:00.599Z,65
2018-08-31T06:08:41.159Z,65
2018-08-31T06:09:21.721Z,65
2018-08-31T06:10:02.273Z,60
2018-08-31T06:10:42.883Z,55
2018-08-31T06:11:23.447Z,55
2018-08-31T06:12:04.101Z,55
2018-08-31T06:12:44.620Z,50
2018-08-31T06:13:25.150Z,55
2018-08-31T06:14:05.715Z,50
2018-08-31T06:14:46.299Z,45
2018-08-31T06:15:26.850Z,45
2018-08-31T06:16:07.424Z,45
2018-08-31T06:16:48.158Z,45
2018-08-31T06:17:28.790Z,45
2018-08-31T06:18:09.367Z,45
2018-08-31T06:18:49.923Z,45
2018-08-31T06:19:30.481Z,45
2018-08-31T06:20:11.039Z,45
2018-08-31T06:20:51.737Z,45
2018-08-31T06:21:32.290Z,45
2018-08-31T06:22:12.872Z,45
2018-08-31T06:22:54.080Z,45
2018-08-31T06:23:34.892Z,45
2018-08-31T06:24:15.813Z,50
2018-08-31T06:24:56.721Z,50
2018-08-31T06:25:37.451Z,50
2018-08-31T06:26:18.156Z,50
2018-08-31T06:26:59.024Z,55
2018-08-31T06:27:42.132Z,55
2018-08-31T06:28:22.821Z,55
2018-08-31T06:29:03.396Z,60
2018-08-31T06:29:44.087Z,65
2018-08-31T06:30:24.552Z,70
2018-08-31T06:31:05.145Z,70
2018-08-31T06:31:45.708Z,80
2018-08-31T06:32:26.356Z,105
2018-08-31T06:33:06.943Z,110
2018-08-31T06:33:47.712Z,115
2018-08-31T06:34:28.443Z,120
2018-08-31T06:35:09.048Z,155
2018-08-31T06:35:49.658Z,195
2018-08-31T06:36:30.314Z,250
2018-08-31T06:37:10.878Z,415
2018-08-31T06:37:51.682Z,245
2018-08-31T06:38:32.229Z,345
2018-08-31T06:39:12.832Z,310
2018-08-31T06:39:53.398Z,275
2018-08-31T06:40:34.036Z,220
2018-08-31T06:41:14.623Z,265
2018-08-31T06:41:55.264Z,265
2018-08-31T06:42:35.851Z,435
2018-08-31T06:43:16.418Z,355
2018-08-31T06:43:57.138Z,680
2018-08-31T06:44:37.756Z,275
2018-08-31T06:45:18.369Z,215
2018-08-31T06:45:58.943Z,205
2018-08-31T06:46:39.582Z,160
2018-08-31T06:47:20.143Z,140
2018-08-31T06:48:00.768Z,145
2018-08-31T06:48:41.347Z,155
2018-08-31T06:49:21.973Z,185
2018-08-31T06:50:02.587Z,225
2018-08-31T06:50:43.188Z,495
2018-08-31T06:51:23.858Z,155
2018-08-31T06:52:04.342Z,110
2018-08-31T06:52:44.952Z,105
2018-08-31T06:53:25.670Z,115
2018-08-31T06:54:06.243Z,135
2018-08-31T06:54:46.875Z,155
2018-08-31T06:55:27.463Z,165
2018-08-31T06:56:08.028Z,105
2018-08-31T06:56:48.648Z,110
2018-08-31T06:57:29.218Z,150
2018-08-31T06:58:09.830Z,375
2018-08-31T06:58:50.394Z,165
2018-08-31T06:59:30.999Z,160
2018-08-31T07:00:11.842Z,155
2018-08-31T07:00:52.471Z,140
2018-08-31T07:01:33.128Z,140
2018-08-31T07:02:13.692Z,120
2018-08-31T07:02:54.673Z,140
2018-08-31T07:03:35.307Z,170
2018-08-31T07:04:16.074Z,395
2018-08-31T07:04:56.860Z,175
2018-08-31T07:05:37.428Z,115
2018-08-31T07:06:18.123Z,90
2018-08-31T07:06:58.806Z,90
2018-08-31T07:07:39.440Z,105
2018-08-31T07:08:20.004Z,125
2018-08-31T07:09:00.644Z,125
2018-08-31T07:09:41.261Z,115
2018-08-31T07:10:21.819Z,100
2018-08-31T07:11:02.480Z,95
2018-08-31T07:11:43.210Z,100
2018-08-31T07:12:24.023Z,95
2018-08-31T07:13:04.589Z,90
2018-08-31T07:13:45.199Z,80
2018-08-31T07:14:25.824Z,80
2018-08-31T07:15:06.449Z,85
2018-08-31T07:15:47.095Z,95
2018-08-31T07:16:27.842Z,85
2018-08-31T07:17:08.497Z,75
2018-08-31T07:17:49.144Z,85
2018-08-31T07:18:29.704Z,85
2018-08-31T07:19:10.369Z,85
2018-08-31T07:19:50.925Z,85
2018-08-31T07:20:31.549Z,80
2018-08-31T07:21:12.160Z,90
2018-08-31T07:21:53.031Z,90
2018-08-31T07:22:33.667Z,85
2018-08-31T07:23:14.249Z,80
2018-08-31T07:23:54.878Z,80
2018-08-31T07:24:35.461Z,80
2018-08-31T07:25:16.100Z,75
2018-08-31T07:25:56.685Z,70
2018-08-31T07:26:37.332Z,75
2018-08-31T07:27:17.968Z,80
2018-08-31T07:27:58.509Z,85
2018-08-31T07:28:39.141Z,75
2018-08-31T07:29:19.702Z,70
2018-08-31T07:30:00.317Z,75
2018-08-31T07:30:40.860Z,75
2018-08-31T07:31:21.462Z,75
2018-08-31T07:32:02.025Z,70
2018-08-31T07:32:42.586Z,70
2018-08-31T07:33:23.149Z,70
2018-08-31T07:34:03.720Z,70
2018-08-31T07:34:44.275Z,75
2018-08-31T07:35:24.844Z,75
2018-08-31T07:36:05.421Z,75
2018-08-31T07:36:45.989Z,70
2018-08-31T07:37:26.533Z,70
2018-08-31T07:38:07.093Z,65
2018-08-31T07:38:47.718Z,65
2018-08-31T07:39:28.274Z,60
2018-08-31T07:40:08.822Z,60
2018-08-31T07:40:49.383Z,60
2018-08-31T07:41:29.944Z,55
2018-08-31T07:42:10.509Z,55
2018-08-31T07:42:51.072Z,50
2018-08-31T07:43:31.629Z,50
2018-08-31T07:44:12.199Z,50
2018-08-31T07:44:52.762Z,50
2018-08-31T07:45:33.325Z,50
2018-08-31T07:46:13.900Z,50
2018-08-31T07:46:54.454Z,50
2018-08-31T07:47:35.022Z,50
2018-08-31T07:48:15.611Z,50
2018-08-31T07:48:56.169Z,50
2018-08-31T07:49:36.730Z,60
2018-08-31T07:50:17.429Z,65
2018-08-31T07:50:58.001Z,75
2018-08-31T07:51:38.571Z,90
2018-08-31T07:52:19.142Z,165
2018-08-31T07:52:59.734Z,125
2018-08-31T07:53:40.306Z,125
2018-08-31T07:54:20.847Z,145
2018-08-31T07:55:01.423Z,135
2018-08-31T07:55:42.012Z,140
2018-08-31T07:56:22.600Z,150
2018-08-31T07:57:03.177Z,115
2018-08-31T07:57:43.793Z,85
2018-08-31T07:58:24.359Z,75
2018-08-31T07:59:04.925Z,80
2018-08-31T07:59:45.491Z,90
2018-08-31T08:00:26.057Z,105
2018-08-31T08:01:06.612Z,125
2018-08-31T08:01:47.173Z,115
2018-08-31T08:02:27.748Z,105
2018-08-31T08:03:08.309Z,100
2018-08-31T08:03:48.893Z,110
2018-08-31T08:04:29.451Z,125
2018-08-31T08:05:10.045Z,125
2018-08-31T08:05:50.585Z,120
2018-08-31T08:06:31.146Z,120
2018-08-31T08:07:11.790Z,125
2018-08-31T08:07:52.350Z,120
2018-08-31T08:08:39.964Z,105
